sensor_id;sensor_type;location;lat;lon;timestamp;temperature;humidity
70170;DHT22;57543;45.442;9.212;2022-07-18T00:00:23;29.45;51.30
70170;DHT22;57543;45.442;9.212;2022-07-18T00:03:27;29.54;50.47
70170;DHT22;57543;45.442;9.212;2022-07-18T00:06:31;29.66;50.37
70170;DHT22;57543;45.442;9.212;2022-07-18T00:09:35;29.75;50.24
70170;DHT22;57543;45.442;9.212;2022-07-18T00:12:38;29.79;49.88
70170;DHT22;57543;45.442;9.212;2022-07-18T00:15:42;29.82;49.61
70170;DHT22;57543;45.442;9.212;2022-07-18T00:18:46;29.86;49.24
70170;DHT22;57543;45.442;9.212;2022-07-18T00:21:50;29.89;49.36
70170;DHT22;57543;45.442;9.212;2022-07-18T00:24:54;30.01;48.64
70170;DHT22;57543;45.442;9.212;2022-07-18T00:27:58;29.93;48.29
70170;DHT22;57543;45.442;9.212;2022-07-18T00:31:02;29.80;48.68
70170;DHT22;57543;45.442;9.212;2022-07-18T00:34:06;29.73;49.10
70170;DHT22;57543;45.442;9.212;2022-07-18T00:37:10;29.73;49.14
70170;DHT22;57543;45.442;9.212;2022-07-18T00:40:14;29.62;48.79
70170;DHT22;57543;45.442;9.212;2022-07-18T00:43:17;29.62;48.99
70170;DHT22;57543;45.442;9.212;2022-07-18T00:46:23;29.65;49.12
70170;DHT22;57543;45.442;9.212;2022-07-18T00:49:27;29.51;49.58
70170;DHT22;57543;45.442;9.212;2022-07-18T00:52:31;29.56;49.13
70170;DHT22;57543;45.442;9.212;2022-07-18T00:55:37;29.47;49.41
70170;DHT22;57543;45.442;9.212;2022-07-18T00:58:42;29.54;49.17
70170;DHT22;57543;45.442;9.212;2022-07-18T01:01:46;29.47;49.35
70170;DHT22;57543;45.442;9.212;2022-07-18T01:04:50;29.47;49.07
70170;DHT22;57543;45.442;9.212;2022-07-18T01:07:54;29.48;49.16
70170;DHT22;57543;45.442;9.212;2022-07-18T01:10:58;29.58;48.62
70170;DHT22;57543;45.442;9.212;2022-07-18T01:14:04;29.59;48.52
70170;DHT22;57543;45.442;9.212;2022-07-18T01:17:13;29.54;48.72
70170;DHT22;57543;45.442;9.212;2022-07-18T01:20:17;29.62;48.35
70170;DHT22;57543;45.442;9.212;2022-07-18T01:23:20;29.48;48.55
70170;DHT22;57543;45.442;9.212;2022-07-18T01:26:25;29.39;48.86
70170;DHT22;57543;45.442;9.212;2022-07-18T01:29:28;29.49;48.48
70170;DHT22;57543;45.442;9.212;2022-07-18T01:32:32;29.45;48.64
70170;DHT22;57543;45.442;9.212;2022-07-18T01:35:36;29.42;48.78
70170;DHT22;57543;45.442;9.212;2022-07-18T01:38:40;29.41;48.83
70170;DHT22;57543;45.442;9.212;2022-07-18T01:41:44;29.41;48.62
70170;DHT22;57543;45.442;9.212;2022-07-18T01:44:48;29.41;48.49
70170;DHT22;57543;45.442;9.212;2022-07-18T01:47:52;29.55;48.00
70170;DHT22;57543;45.442;9.212;2022-07-18T01:50:55;29.47;48.12
70170;DHT22;57543;45.442;9.212;2022-07-18T01:53:59;29.47;47.95
70170;DHT22;57543;45.442;9.212;2022-07-18T01:57:06;29.44;47.86
70170;DHT22;57543;45.442;9.212;2022-07-18T02:00:11;29.39;47.91
70170;DHT22;57543;45.442;9.212;2022-07-18T02:03:15;29.42;47.70
70170;DHT22;57543;45.442;9.212;2022-07-18T02:06:19;29.37;47.78
70170;DHT22;57543;45.442;9.212;2022-07-18T02:09:23;29.28;47.81
70170;DHT22;57543;45.442;9.212;2022-07-18T02:12:27;29.27;47.84
70170;DHT22;57543;45.442;9.212;2022-07-18T02:15:30;29.21;47.92
70170;DHT22;57543;45.442;9.212;2022-07-18T02:18:34;29.25;47.71
70170;DHT22;57543;45.442;9.212;2022-07-18T02:21:38;29.37;47.11
70170;DHT22;57543;45.442;9.212;2022-07-18T02:24:42;29.32;47.17
70170;DHT22;57543;45.442;9.212;2022-07-18T02:27:46;29.27;47.32
70170;DHT22;57543;45.442;9.212;2022-07-18T02:30:50;29.24;47.28
70170;DHT22;57543;45.442;9.212;2022-07-18T02:33:54;29.24;47.20
70170;DHT22;57543;45.442;9.212;2022-07-18T02:36:58;29.25;46.92
70170;DHT22;57543;45.442;9.212;2022-07-18T02:40:01;29.22;47.07
70170;DHT22;57543;45.442;9.212;2022-07-18T02:43:05;29.22;47.00
70170;DHT22;57543;45.442;9.212;2022-07-18T02:46:09;29.14;46.93
70170;DHT22;57543;45.442;9.212;2022-07-18T02:49:12;29.08;46.99
70170;DHT22;57543;45.442;9.212;2022-07-18T02:52:29;29.22;46.61
70170;DHT22;57543;45.442;9.212;2022-07-18T02:55:33;29.14;46.66
70170;DHT22;57543;45.442;9.212;2022-07-18T02:58:37;29.06;46.82
70170;DHT22;57543;45.442;9.212;2022-07-18T03:01:41;29.06;46.79
70170;DHT22;57543;45.442;9.212;2022-07-18T03:04:45;29.18;46.40
70170;DHT22;57543;45.442;9.212;2022-07-18T03:07:49;29.11;46.46
70170;DHT22;57543;45.442;9.212;2022-07-18T03:10:53;29.22;46.17
70170;DHT22;57543;45.442;9.212;2022-07-18T03:13:56;29.15;46.40
70170;DHT22;57543;45.442;9.212;2022-07-18T03:17:00;29.08;46.56
70170;DHT22;57543;45.442;9.212;2022-07-18T03:20:04;29.13;46.36
70170;DHT22;57543;45.442;9.212;2022-07-18T03:23:09;29.06;46.62
70170;DHT22;57543;45.442;9.212;2022-07-18T03:26:13;28.97;46.92
70170;DHT22;57543;45.442;9.212;2022-07-18T03:29:17;28.93;46.99
70170;DHT22;57543;45.442;9.212;2022-07-18T03:32:20;28.89;47.19
70170;DHT22;57543;45.442;9.212;2022-07-18T03:35:24;28.90;47.21
70170;DHT22;57543;45.442;9.212;2022-07-18T03:38:28;28.89;47.34
70170;DHT22;57543;45.442;9.212;2022-07-18T03:41:32;29.00;46.92
70170;DHT22;57543;45.442;9.212;2022-07-18T03:44:35;28.96;46.95
70170;DHT22;57543;45.442;9.212;2022-07-18T03:47:39;28.94;47.00
70170;DHT22;57543;45.442;9.212;2022-07-18T03:50:43;28.96;47.15
70170;DHT22;57543;45.442;9.212;2022-07-18T03:53:47;29.10;46.39
70170;DHT22;57543;45.442;9.212;2022-07-18T03:56:51;29.10;46.57
70170;DHT22;57543;45.442;9.212;2022-07-18T03:59:55;29.11;46.20
70170;DHT22;57543;45.442;9.212;2022-07-18T04:02:58;29.13;46.06
70170;DHT22;57543;45.442;9.212;2022-07-18T04:06:02;29.18;45.56
70170;DHT22;57543;45.442;9.212;2022-07-18T04:09:06;29.25;45.52
70170;DHT22;57543;45.442;9.212;2022-07-18T04:12:09;29.14;45.69
70170;DHT22;57543;45.442;9.212;2022-07-18T04:15:13;29.15;45.64
70170;DHT22;57543;45.442;9.212;2022-07-18T04:18:17;29.20;45.13
70170;DHT22;57543;45.442;9.212;2022-07-18T04:21:21;29.15;45.70
70170;DHT22;57543;45.442;9.212;2022-07-18T04:24:24;29.20;45.37
70170;DHT22;57543;45.442;9.212;2022-07-18T04:27:28;29.21;45.29
70170;DHT22;57543;45.442;9.212;2022-07-18T04:30:33;28.87;45.43
70170;DHT22;57543;45.442;9.212;2022-07-18T04:33:36;28.62;45.98
70170;DHT22;57543;45.442;9.212;2022-07-18T04:36:40;28.56;46.19
70170;DHT22;57543;45.442;9.212;2022-07-18T04:39:44;28.51;46.07
70170;DHT22;57543;45.442;9.212;2022-07-18T04:42:48;28.47;46.49
70170;DHT22;57543;45.442;9.212;2022-07-18T04:45:51;28.49;46.56
70170;DHT22;57543;45.442;9.212;2022-07-18T04:48:55;28.53;46.66
70170;DHT22;57543;45.442;9.212;2022-07-18T04:51:59;28.63;46.12
70170;DHT22;57543;45.442;9.212;2022-07-18T04:55:02;28.60;46.10
70170;DHT22;57543;45.442;9.212;2022-07-18T04:58:06;28.53;46.36
70170;DHT22;57543;45.442;9.212;2022-07-18T05:01:10;28.29;47.26
70170;DHT22;57543;45.442;9.212;2022-07-18T05:04:14;28.48;46.80
70170;DHT22;57543;45.442;9.212;2022-07-18T05:07:17;28.17;47.46
70170;DHT22;57543;45.442;9.212;2022-07-18T05:10:22;28.14;47.72
70170;DHT22;57543;45.442;9.212;2022-07-18T05:13:26;28.21;47.64
70170;DHT22;57543;45.442;9.212;2022-07-18T05:16:30;28.29;47.55
70170;DHT22;57543;45.442;9.212;2022-07-18T05:19:34;28.63;47.35
70170;DHT22;57543;45.442;9.212;2022-07-18T05:22:38;28.68;47.16
70170;DHT22;57543;45.442;9.212;2022-07-18T05:25:41;28.76;46.91
70170;DHT22;57543;45.442;9.212;2022-07-18T05:28:45;28.73;46.39
70170;DHT22;57543;45.442;9.212;2022-07-18T05:31:48;28.55;46.29
70170;DHT22;57543;45.442;9.212;2022-07-18T05:34:52;28.34;46.77
70170;DHT22;57543;45.442;9.212;2022-07-18T05:37:56;28.28;47.71
70170;DHT22;57543;45.442;9.212;2022-07-18T05:40:59;28.24;47.19
70170;DHT22;57543;45.442;9.212;2022-07-18T05:44:04;28.51;46.63
70170;DHT22;57543;45.442;9.212;2022-07-18T05:47:07;28.60;45.93
70170;DHT22;57543;45.442;9.212;2022-07-18T05:50:11;28.63;45.74
70170;DHT22;57543;45.442;9.212;2022-07-18T05:53:15;28.35;46.13
70170;DHT22;57543;45.442;9.212;2022-07-18T05:56:19;28.37;45.71
70170;DHT22;57543;45.442;9.212;2022-07-18T05:59:23;28.63;45.53
70170;DHT22;57543;45.442;9.212;2022-07-18T06:02:27;28.69;45.33
70170;DHT22;57543;45.442;9.212;2022-07-18T06:05:31;28.77;44.99
70170;DHT22;57543;45.442;9.212;2022-07-18T06:08:34;28.89;44.63
70170;DHT22;57543;45.442;9.212;2022-07-18T06:11:39;28.77;44.70
70170;DHT22;57543;45.442;9.212;2022-07-18T06:14:42;28.93;44.52
70170;DHT22;57543;45.442;9.212;2022-07-18T06:17:47;29.17;44.03
70170;DHT22;57543;45.442;9.212;2022-07-18T06:20:50;29.03;45.04
70170;DHT22;57543;45.442;9.212;2022-07-18T06:23:54;29.08;44.07
70170;DHT22;57543;45.442;9.212;2022-07-18T06:26:58;29.00;44.41
70170;DHT22;57543;45.442;9.212;2022-07-18T06:30:03;29.10;44.24
70170;DHT22;57543;45.442;9.212;2022-07-18T06:33:07;29.14;44.18
70170;DHT22;57543;45.442;9.212;2022-07-18T06:36:11;29.15;44.19
70170;DHT22;57543;45.442;9.212;2022-07-18T06:39:16;29.11;44.63
70170;DHT22;57543;45.442;9.212;2022-07-18T06:42:21;29.03;43.82
70170;DHT22;57543;45.442;9.212;2022-07-18T06:45:26;28.69;44.49
70170;DHT22;57543;45.442;9.212;2022-07-18T06:48:32;28.49;44.73
70170;DHT22;57543;45.442;9.212;2022-07-18T06:51:36;28.53;43.94
70170;DHT22;57543;45.442;9.212;2022-07-18T06:54:40;28.65;43.87
70170;DHT22;57543;45.442;9.212;2022-07-18T06:57:44;28.77;43.61
70170;DHT22;57543;45.442;9.212;2022-07-18T07:00:49;29.04;43.59
70170;DHT22;57543;45.442;9.212;2022-07-18T07:03:52;29.24;42.14
70170;DHT22;57543;45.442;9.212;2022-07-18T07:06:56;29.45;41.49
70170;DHT22;57543;45.442;9.212;2022-07-18T07:10:00;29.61;40.78
70170;DHT22;57543;45.442;9.212;2022-07-18T07:13:03;29.77;39.91
70170;DHT22;57543;45.442;9.212;2022-07-18T07:16:07;29.83;40.09
70170;DHT22;57543;45.442;9.212;2022-07-18T07:19:11;29.84;39.30
70170;DHT22;57543;45.442;9.212;2022-07-18T07:22:14;29.89;39.13
70170;DHT22;57543;45.442;9.212;2022-07-18T07:25:20;30.04;38.45
70170;DHT22;57543;45.442;9.212;2022-07-18T07:28:24;30.16;38.23
70170;DHT22;57543;45.442;9.212;2022-07-18T07:31:28;30.31;38.24
70170;DHT22;57543;45.442;9.212;2022-07-18T07:34:31;30.48;37.84
70170;DHT22;57543;45.442;9.212;2022-07-18T07:37:36;30.29;37.73
70170;DHT22;57543;45.442;9.212;2022-07-18T07:40:39;30.41;37.47
70170;DHT22;57543;45.442;9.212;2022-07-18T07:43:43;30.52;37.03
70170;DHT22;57543;45.442;9.212;2022-07-18T07:46:46;30.61;37.33
70170;DHT22;57543;45.442;9.212;2022-07-18T07:49:50;30.71;37.25
70170;DHT22;57543;45.442;9.212;2022-07-18T07:52:54;30.75;37.27
70170;DHT22;57543;45.442;9.212;2022-07-18T07:55:58;30.72;36.86
70170;DHT22;57543;45.442;9.212;2022-07-18T07:59:02;30.76;37.24
70170;DHT22;57543;45.442;9.212;2022-07-18T08:02:06;30.87;37.62
70170;DHT22;57543;45.442;9.212;2022-07-18T08:05:09;30.90;37.38
70170;DHT22;57543;45.442;9.212;2022-07-18T08:08:13;30.79;37.26
70170;DHT22;57543;45.442;9.212;2022-07-18T08:11:18;30.84;37.49
70170;DHT22;57543;45.442;9.212;2022-07-18T08:14:21;31.01;37.04
70170;DHT22;57543;45.442;9.212;2022-07-18T08:17:25;31.16;36.97
70170;DHT22;57543;45.442;9.212;2022-07-18T08:20:30;31.13;37.25
70170;DHT22;57543;45.442;9.212;2022-07-18T08:23:34;31.20;37.38
70170;DHT22;57543;45.442;9.212;2022-07-18T08:26:39;31.21;37.19
70170;DHT22;57543;45.442;9.212;2022-07-18T08:29:43;31.23;37.21
70170;DHT22;57543;45.442;9.212;2022-07-18T08:32:47;31.28;37.24
70170;DHT22;57543;45.442;9.212;2022-07-18T08:35:51;31.45;37.51
70170;DHT22;57543;45.442;9.212;2022-07-18T08:38:55;31.53;36.92
70170;DHT22;57543;45.442;9.212;2022-07-18T08:42:00;31.68;36.90
70170;DHT22;57543;45.442;9.212;2022-07-18T08:45:04;31.66;36.36
70170;DHT22;57543;45.442;9.212;2022-07-18T08:48:09;31.66;36.08
70170;DHT22;57543;45.442;9.212;2022-07-18T08:51:13;31.68;36.00
70170;DHT22;57543;45.442;9.212;2022-07-18T08:54:16;31.93;36.16
70170;DHT22;57543;45.442;9.212;2022-07-18T08:57:21;32.35;35.65
70170;DHT22;57543;45.442;9.212;2022-07-18T09:00:25;32.28;35.77
70170;DHT22;57543;45.442;9.212;2022-07-18T09:03:29;34.32;33.08
70170;DHT22;57543;45.442;9.212;2022-07-18T09:06:48;35.40;32.24
70170;DHT22;57543;45.442;9.212;2022-07-18T09:09:54;36.06;30.37
70170;DHT22;57543;45.442;9.212;2022-07-18T09:12:59;37.25;28.90
70170;DHT22;57543;45.442;9.212;2022-07-18T09:16:11;37.46;28.39
70170;DHT22;57543;45.442;9.212;2022-07-18T09:19:15;36.87;29.35
70170;DHT22;57543;45.442;9.212;2022-07-18T09:22:21;36.60;29.58
70170;DHT22;57543;45.442;9.212;2022-07-18T09:25:32;36.43;30.56
70170;DHT22;57543;45.442;9.212;2022-07-18T09:28:50;35.80;30.52
70170;DHT22;57543;45.442;9.212;2022-07-18T09:31:54;35.43;30.01
70170;DHT22;57543;45.442;9.212;2022-07-18T09:35:07;35.12;31.57
70170;DHT22;57543;45.442;9.212;2022-07-18T09:38:14;35.09;30.94
70170;DHT22;57543;45.442;9.212;2022-07-18T09:41:26;34.68;31.53
70170;DHT22;57543;45.442;9.212;2022-07-18T09:44:30;34.51;31.55
70170;DHT22;57543;45.442;9.212;2022-07-18T09:48:04;34.78;31.97
70170;DHT22;57543;45.442;9.212;2022-07-18T09:51:08;35.36;30.91
70170;DHT22;57543;45.442;9.212;2022-07-18T09:54:13;35.61;30.35
70170;DHT22;57543;45.442;9.212;2022-07-18T09:57:25;36.35;29.31
70170;DHT22;57543;45.442;9.212;2022-07-18T10:00:30;36.16;30.14
70170;DHT22;57543;45.442;9.212;2022-07-18T10:03:34;36.88;29.27
70170;DHT22;57543;45.442;9.212;2022-07-18T10:06:39;36.82;29.70
70170;DHT22;57543;45.442;9.212;2022-07-18T10:09:45;37.26;30.08
70170;DHT22;57543;45.442;9.212;2022-07-18T10:12:49;37.43;28.49
70170;DHT22;57543;45.442;9.212;2022-07-18T10:15:55;37.76;28.57
70170;DHT22;57543;45.442;9.212;2022-07-18T10:18:59;37.08;28.60
70170;DHT22;57543;45.442;9.212;2022-07-18T10:22:04;37.35;28.46
70170;DHT22;57543;45.442;9.212;2022-07-18T10:25:10;37.91;28.03
70170;DHT22;57543;45.442;9.212;2022-07-18T10:28:14;37.53;28.66
70170;DHT22;57543;45.442;9.212;2022-07-18T10:31:18;37.81;28.68
70170;DHT22;57543;45.442;9.212;2022-07-18T10:34:30;37.95;28.34
70170;DHT22;57543;45.442;9.212;2022-07-18T10:37:34;36.94;29.97
70170;DHT22;57543;45.442;9.212;2022-07-18T10:41:01;38.28;27.59
70170;DHT22;57543;45.442;9.212;2022-07-18T10:47:28;38.21;28.04
70170;DHT22;57543;45.442;9.212;2022-07-18T10:51:01;37.46;29.15
70170;DHT22;57543;45.442;9.212;2022-07-18T10:54:12;37.27;29.55
70170;DHT22;57543;45.442;9.212;2022-07-18T10:57:15;37.59;29.60
70170;DHT22;57543;45.442;9.212;2022-07-18T11:03:27;37.57;28.78
70170;DHT22;57543;45.442;9.212;2022-07-18T11:06:53;36.73;29.60
70170;DHT22;57543;45.442;9.212;2022-07-18T11:09:57;37.15;29.87
70170;DHT22;57543;45.442;9.212;2022-07-18T11:16:28;38.01;29.48
70170;DHT22;57543;45.442;9.212;2022-07-18T11:19:32;37.44;29.15
70170;DHT22;57543;45.442;9.212;2022-07-18T11:22:36;37.40;29.29
70170;DHT22;57543;45.442;9.212;2022-07-18T11:25:40;37.19;29.52
70170;DHT22;57543;45.442;9.212;2022-07-18T11:28:44;36.74;30.40
70170;DHT22;57543;45.442;9.212;2022-07-18T11:31:54;37.05;30.17
70170;DHT22;57543;45.442;9.212;2022-07-18T11:38:55;37.49;29.53
70170;DHT22;57543;45.442;9.212;2022-07-18T11:41:59;37.54;29.65
70170;DHT22;57543;45.442;9.212;2022-07-18T11:45:14;37.69;29.43
70170;DHT22;57543;45.442;9.212;2022-07-18T11:48:21;38.02;29.29
70170;DHT22;57543;45.442;9.212;2022-07-18T11:51:45;38.14;28.79
70170;DHT22;57543;45.442;9.212;2022-07-18T11:54:49;38.69;28.45
70170;DHT22;57543;45.442;9.212;2022-07-18T11:57:53;38.94;27.93
70170;DHT22;57543;45.442;9.212;2022-07-18T12:00:58;39.42;27.49
70170;DHT22;57543;45.442;9.212;2022-07-18T12:04:02;38.73;27.74
70170;DHT22;57543;45.442;9.212;2022-07-18T12:07:19;38.46;28.61
70170;DHT22;57543;45.442;9.212;2022-07-18T12:10:23;38.69;28.22
70170;DHT22;57543;45.442;9.212;2022-07-18T12:14:20;37.89;28.90
70170;DHT22;57543;45.442;9.212;2022-07-18T12:17:06;38.40;28.68
70170;DHT22;57543;45.442;9.212;2022-07-18T12:20:20;38.39;28.46
70170;DHT22;57543;45.442;9.212;2022-07-18T12:23:28;37.84;29.01
70170;DHT22;57543;45.442;9.212;2022-07-18T12:26:32;37.98;29.01
70170;DHT22;57543;45.442;9.212;2022-07-18T12:33:16;38.23;28.92
70170;DHT22;57543;45.442;9.212;2022-07-18T12:36:20;38.22;29.00
70170;DHT22;57543;45.442;9.212;2022-07-18T12:39:33;38.36;28.77
70170;DHT22;57543;45.442;9.212;2022-07-18T12:42:39;38.52;28.60
70170;DHT22;57543;45.442;9.212;2022-07-18T12:45:43;38.50;28.55
70170;DHT22;57543;45.442;9.212;2022-07-18T12:48:47;38.76;28.39
70170;DHT22;57543;45.442;9.212;2022-07-18T12:51:51;38.49;28.82
70170;DHT22;57543;45.442;9.212;2022-07-18T12:54:55;38.25;28.86
70170;DHT22;57543;45.442;9.212;2022-07-18T12:58:00;38.21;28.90
70170;DHT22;57543;45.442;9.212;2022-07-18T13:01:03;37.84;29.35
70170;DHT22;57543;45.442;9.212;2022-07-18T13:04:08;37.50;29.87
70170;DHT22;57543;45.442;9.212;2022-07-18T13:07:12;37.77;30.12
70170;DHT22;57543;45.442;9.212;2022-07-18T13:10:16;37.92;29.65
70170;DHT22;57543;45.442;9.212;2022-07-18T13:13:20;37.74;30.21
70170;DHT22;57543;45.442;9.212;2022-07-18T13:16:23;37.44;30.55
70170;DHT22;57543;45.442;9.212;2022-07-18T13:19:28;37.27;30.63
70170;DHT22;57543;45.442;9.212;2022-07-18T13:22:33;37.71;30.37
70170;DHT22;57543;45.442;9.212;2022-07-18T13:25:41;37.97;29.99
70170;DHT22;57543;45.442;9.212;2022-07-18T13:28:44;37.82;29.91
70170;DHT22;57543;45.442;9.212;2022-07-18T13:31:48;37.81;30.20
70170;DHT22;57543;45.442;9.212;2022-07-18T13:34:53;37.84;30.12
70170;DHT22;57543;45.442;9.212;2022-07-18T13:37:57;37.69;31.40
70170;DHT22;57543;45.442;9.212;2022-07-18T13:41:01;37.94;31.46
70170;DHT22;57543;45.442;9.212;2022-07-18T13:44:05;38.14;31.46
70170;DHT22;57543;45.442;9.212;2022-07-18T13:47:08;38.19;30.07
70170;DHT22;57543;45.442;9.212;2022-07-18T13:50:12;38.01;30.20
70170;DHT22;57543;45.442;9.212;2022-07-18T13:53:16;37.92;30.57
70170;DHT22;57543;45.442;9.212;2022-07-18T13:56:20;37.47;31.10
70170;DHT22;57543;45.442;9.212;2022-07-18T13:59:24;37.47;31.47
70170;DHT22;57543;45.442;9.212;2022-07-18T14:02:31;37.69;31.32
70170;DHT22;57543;45.442;9.212;2022-07-18T14:05:35;37.44;31.17
70170;DHT22;57543;45.442;9.212;2022-07-18T14:08:39;37.23;31.45
70170;DHT22;57543;45.442;9.212;2022-07-18T14:11:43;37.05;31.93
70170;DHT22;57543;45.442;9.212;2022-07-18T14:14:47;37.30;32.91
70170;DHT22;57543;45.442;9.212;2022-07-18T14:17:50;37.25;31.93
70170;DHT22;57543;45.442;9.212;2022-07-18T14:20:54;36.96;31.54
70170;DHT22;57543;45.442;9.212;2022-07-18T14:23:58;37.02;32.90
70170;DHT22;57543;45.442;9.212;2022-07-18T14:27:02;37.11;32.16
70170;DHT22;57543;45.442;9.212;2022-07-18T14:30:07;36.82;33.00
70170;DHT22;57543;45.442;9.212;2022-07-18T14:33:11;36.99;32.65
70170;DHT22;57543;45.442;9.212;2022-07-18T14:36:15;37.07;32.31
70170;DHT22;57543;45.442;9.212;2022-07-18T14:39:19;37.11;32.12
70170;DHT22;57543;45.442;9.212;2022-07-18T14:42:23;37.03;31.77
70170;DHT22;57543;45.442;9.212;2022-07-18T14:45:27;37.12;32.47
70170;DHT22;57543;45.442;9.212;2022-07-18T14:48:31;37.07;31.88
70170;DHT22;57543;45.442;9.212;2022-07-18T14:51:35;37.05;31.69
70170;DHT22;57543;45.442;9.212;2022-07-18T14:54:39;36.78;32.20
70170;DHT22;57543;45.442;9.212;2022-07-18T14:57:42;36.75;32.07
70170;DHT22;57543;45.442;9.212;2022-07-18T15:00:46;36.82;32.10
70170;DHT22;57543;45.442;9.212;2022-07-18T15:03:50;36.74;31.89
70170;DHT22;57543;45.442;9.212;2022-07-18T15:06:54;36.81;32.21
70170;DHT22;57543;45.442;9.212;2022-07-18T15:09:58;36.66;32.23
70170;DHT22;57543;45.442;9.212;2022-07-18T15:13:02;36.74;32.74
70170;DHT22;57543;45.442;9.212;2022-07-18T15:16:05;36.77;32.38
70170;DHT22;57543;45.442;9.212;2022-07-18T15:19:09;36.51;32.75
70170;DHT22;57543;45.442;9.212;2022-07-18T15:22:12;36.25;33.25
70170;DHT22;57543;45.442;9.212;2022-07-18T15:25:16;36.01;33.82
70170;DHT22;57543;45.442;9.212;2022-07-18T15:28:20;35.78;34.07
70170;DHT22;57543;45.442;9.212;2022-07-18T15:31:26;35.68;34.12
70170;DHT22;57543;45.442;9.212;2022-07-18T15:34:30;35.55;34.31
70170;DHT22;57543;45.442;9.212;2022-07-18T15:37:34;35.25;34.48
70170;DHT22;57543;45.442;9.212;2022-07-18T15:40:38;35.39;34.60
70170;DHT22;57543;45.442;9.212;2022-07-18T15:43:42;35.34;34.19
70170;DHT22;57543;45.442;9.212;2022-07-18T15:46:46;35.44;34.23
70170;DHT22;57543;45.442;9.212;2022-07-18T15:49:49;35.40;34.11
70170;DHT22;57543;45.442;9.212;2022-07-18T15:52:54;35.47;34.37
70170;DHT22;57543;45.442;9.212;2022-07-18T15:55:58;35.86;33.79
70170;DHT22;57543;45.442;9.212;2022-07-18T15:59:01;36.54;32.67
70170;DHT22;57543;45.442;9.212;2022-07-18T16:02:05;37.70;31.38
70170;DHT22;57543;45.442;9.212;2022-07-18T16:05:09;38.52;30.06
70170;DHT22;57543;45.442;9.212;2022-07-18T16:08:13;38.45;30.31
70170;DHT22;57543;45.442;9.212;2022-07-18T16:11:17;38.21;30.85
70170;DHT22;57543;45.442;9.212;2022-07-18T16:14:21;39.66;28.54
70170;DHT22;57543;45.442;9.212;2022-07-18T16:17:25;40.45;27.84
70170;DHT22;57543;45.442;9.212;2022-07-18T16:20:29;40.05;28.34
70170;DHT22;57543;45.442;9.212;2022-07-18T16:23:33;39.01;29.57
70170;DHT22;57543;45.442;9.212;2022-07-18T16:26:37;39.48;29.14
70170;DHT22;57543;45.442;9.212;2022-07-18T16:29:41;39.57;28.97
70170;DHT22;57543;45.442;9.212;2022-07-18T16:32:45;38.94;30.06
70170;DHT22;57543;45.442;9.212;2022-07-18T16:35:49;38.98;30.27
70170;DHT22;57543;45.442;9.212;2022-07-18T16:38:54;38.86;30.23
70170;DHT22;57543;45.442;9.212;2022-07-18T16:41:57;38.88;30.18
70170;DHT22;57543;45.442;9.212;2022-07-18T16:45:01;38.04;31.05
70170;DHT22;57543;45.442;9.212;2022-07-18T16:48:06;37.84;31.53
70170;DHT22;57543;45.442;9.212;2022-07-18T16:51:10;37.69;31.77
70170;DHT22;57543;45.442;9.212;2022-07-18T16:54:14;37.53;31.98
70170;DHT22;57543;45.442;9.212;2022-07-18T16:57:19;37.50;32.36
70170;DHT22;57543;45.442;9.212;2022-07-18T17:00:23;37.57;31.74
70170;DHT22;57543;45.442;9.212;2022-07-18T17:03:27;37.69;31.43
70170;DHT22;57543;45.442;9.212;2022-07-18T17:06:30;37.87;31.29
70170;DHT22;57543;45.442;9.212;2022-07-18T17:09:34;37.67;31.37
70170;DHT22;57543;45.442;9.212;2022-07-18T17:12:40;37.16;31.85
70170;DHT22;57543;45.442;9.212;2022-07-18T17:15:45;37.52;31.60
70170;DHT22;57543;45.442;9.212;2022-07-18T17:18:49;36.98;32.85
70170;DHT22;57543;45.442;9.212;2022-07-18T17:21:53;37.18;32.54
70170;DHT22;57543;45.442;9.212;2022-07-18T17:24:57;36.74;33.11
70170;DHT22;57543;45.442;9.212;2022-07-18T17:28:02;36.73;32.99
70170;DHT22;57543;45.442;9.212;2022-07-18T17:31:06;36.68;32.94
70170;DHT22;57543;45.442;9.212;2022-07-18T17:34:09;36.71;33.11
70170;DHT22;57543;45.442;9.212;2022-07-18T17:37:15;36.20;33.85
70170;DHT22;57543;45.442;9.212;2022-07-18T17:40:19;36.18;33.92
70170;DHT22;57543;45.442;9.212;2022-07-18T17:43:23;36.44;33.45
70170;DHT22;57543;45.442;9.212;2022-07-18T17:46:27;36.48;33.53
70170;DHT22;57543;45.442;9.212;2022-07-18T17:49:33;36.78;32.97
70170;DHT22;57543;45.442;9.212;2022-07-18T17:52:38;36.44;33.20
70170;DHT22;57543;45.442;9.212;2022-07-18T17:55:42;36.73;32.74
70170;DHT22;57543;45.442;9.212;2022-07-18T17:58:46;36.68;33.02
70170;DHT22;57543;45.442;9.212;2022-07-18T18:01:49;36.81;32.94
70170;DHT22;57543;45.442;9.212;2022-07-18T18:04:53;36.32;33.74
70170;DHT22;57543;45.442;9.212;2022-07-18T18:07:57;36.40;33.47
70170;DHT22;57543;45.442;9.212;2022-07-18T18:11:02;36.13;33.65
70170;DHT22;57543;45.442;9.212;2022-07-18T18:14:06;36.35;33.17
70170;DHT22;57543;45.442;9.212;2022-07-18T18:17:09;35.98;33.92
70170;DHT22;57543;45.442;9.212;2022-07-18T18:20:13;36.23;33.43
70170;DHT22;57543;45.442;9.212;2022-07-18T18:23:23;36.12;33.61
70170;DHT22;57543;45.442;9.212;2022-07-18T18:26:32;36.28;33.52
70170;DHT22;57543;45.442;9.212;2022-07-18T18:29:37;36.62;32.97
70170;DHT22;57543;45.442;9.212;2022-07-18T18:32:41;36.74;32.70
70170;DHT22;57543;45.442;9.212;2022-07-18T18:35:45;36.67;32.78
70170;DHT22;57543;45.442;9.212;2022-07-18T18:38:48;36.54;32.88
70170;DHT22;57543;45.442;9.212;2022-07-18T18:41:53;36.71;32.67
70170;DHT22;57543;45.442;9.212;2022-07-18T18:45:00;36.67;32.74
70170;DHT22;57543;45.442;9.212;2022-07-18T18:48:06;36.54;33.10
70170;DHT22;57543;45.442;9.212;2022-07-18T18:51:13;36.73;32.99
70170;DHT22;57543;45.442;9.212;2022-07-18T18:54:20;36.39;33.44
70170;DHT22;57543;45.442;9.212;2022-07-18T18:57:24;36.02;33.99
70170;DHT22;57543;45.442;9.212;2022-07-18T19:00:28;36.23;33.58
70170;DHT22;57543;45.442;9.212;2022-07-18T19:03:37;36.19;33.68
70170;DHT22;57543;45.442;9.212;2022-07-18T19:06:41;36.11;33.78
70170;DHT22;57543;45.442;9.212;2022-07-18T19:09:46;36.23;33.78
70170;DHT22;57543;45.442;9.212;2022-07-18T19:12:52;35.98;34.40
70170;DHT22;57543;45.442;9.212;2022-07-18T19:15:59;36.32;33.90
70170;DHT22;57543;45.442;9.212;2022-07-18T19:19:03;36.15;34.24
70170;DHT22;57543;45.442;9.212;2022-07-18T19:22:07;36.18;34.26
70170;DHT22;57543;45.442;9.212;2022-07-18T19:25:11;36.39;33.95
70170;DHT22;57543;45.442;9.212;2022-07-18T19:28:14;36.32;34.04
70170;DHT22;57543;45.442;9.212;2022-07-18T19:31:19;35.91;34.69
70170;DHT22;57543;45.442;9.212;2022-07-18T19:34:26;35.58;35.25
70170;DHT22;57543;45.442;9.212;2022-07-18T19:37:30;36.13;34.50
70170;DHT22;57543;45.442;9.212;2022-07-18T19:40:34;35.94;34.84
70170;DHT22;57543;45.442;9.212;2022-07-18T19:43:38;35.53;35.50